Aeroporto :
LOGIN :

Iscrizione | Disclaimer

   EN    FR    IT 

 










Sommario :    VFR   VFR Marginale   IFR   IFR Intensivo   IFR Molto Intensivo
Visibilità : 
Base nubi : 
>= 8 km
>= 3000ft
5 / 8 km
1000 / 3000 ft
1500m / 5 km
500 / 1000 ft
800 / 1500m
200 / 500 ft
< 800m
< 200 ft
Simboli :   Temporali  Nebbia  Neve Forte  Precipitazioni Forti  Vento > 20 kt
SIGMETs :   Varie  Temporali  Ghiacco  Turbolenza  Onda orograficha  Ceneri Vulcaniche







- Altitudine del aeroporto : 1197 ft
- Codice IATA : SPM


ETAD - Spangdahlem Ab

ULTIMO METAR :
  • 181756Z AUTO 21007KT 9999 FEW220 07/00 A3003 RMK AO2 SLP173 T00690001 10121 20067 55003 $

METARs OBSOLETI :
  • 181656Z AUTO 23003KT 9999 CLR 09/01 A3004 RMK AO2 SLP175 T00940006 $
  • 181556Z AUTO 23008KT 9999 CLR 11/01 A3003 RMK AO2 SLP170 T01120009 $

TAF TAF ETAD
Valido dal 18 a 13 ore il 19 a 19 ore UTC


181300Z 1813/1919 22009KT 9999 SKC QNH3000INS
BECMG 1901/1902 23008KT 9999 SCT005 BKN010 OVC030 QNH2999INS
TEMPO 1906/1911 27008KT 5000 -RA BR BKN005 OVC010
BECMG 1911/1912 27010G15KT 9999 BKN030 QNH3005INS TX12/1815Z TN02/1902Z
Nessun NOTAM noto per questo aeroporto.



MetMap, La meteo Aeronautica in un colpo d'occhio ! - Copyright ORBIFLY Dicembre 2007 - Disclaimer

ORBIFLY MET'MAP TEAM :

Programmazione e sviluppo : Alexandra Zaïnal
Concezione e sviluppo : Baudouin d'Aumeries
Co-Programmazione e sviluppo : Marc-Olivier Méhu
Supporto tecnico e logistico : Manuel Goepfert
Aiuto per la traduzione : Arnaldo La Scala

Contatto : metmap@orbifly.com




FONTI E CREDITI :

   NOAA